sensor_id;sensor_type;location;lat;lon;timestamp;temperature;humidity
12845;DHT22;68700;48.534;9.196;2023-05-10T00:01:11;13.60;99.90
12845;DHT22;68700;48.534;9.196;2023-05-10T00:04:35;13.60;99.90
12845;DHT22;68700;48.534;9.196;2023-05-10T00:07:57;13.60;99.90
12845;DHT22;68700;48.534;9.196;2023-05-10T00:11:19;13.50;99.90
12845;DHT22;68700;48.534;9.196;2023-05-10T00:14:41;13.50;99.90
12845;DHT22;68700;48.534;9.196;2023-05-10T00:18:03;13.40;99.90
12845;DHT22;68700;48.534;9.196;2023-05-10T00:21:26;13.40;99.90
12845;DHT22;68700;48.534;9.196;2023-05-10T00:24:48;13.50;99.90
12845;DHT22;68700;48.534;9.196;2023-05-10T00:28:10;13.40;99.90
12845;DHT22;68700;48.534;9.196;2023-05-10T00:31:32;13.40;99.90
12845;DHT22;68700;48.534;9.196;2023-05-10T00:34:54;13.40;99.90
12845;DHT22;68700;48.534;9.196;2023-05-10T00:38:17;13.40;99.90
12845;DHT22;68700;48.534;9.196;2023-05-10T00:41:39;13.40;99.90
12845;DHT22;68700;48.534;9.196;2023-05-10T00:45:01;13.30;99.90
12845;DHT22;68700;48.534;9.196;2023-05-10T00:48:23;13.30;99.90
12845;DHT22;68700;48.534;9.196;2023-05-10T00:51:45;13.40;99.90
12845;DHT22;68700;48.534;9.196;2023-05-10T00:55:09;13.30;99.90
12845;DHT22;68700;48.534;9.196;2023-05-10T00:58:33;13.30;99.90
12845;DHT22;68700;48.534;9.196;2023-05-10T01:01:54;13.20;99.90
12845;DHT22;68700;48.534;9.196;2023-05-10T01:05:16;13.20;99.90
12845;DHT22;68700;48.534;9.196;2023-05-10T01:08:38;13.20;99.90
12845;DHT22;68700;48.534;9.196;2023-05-10T01:12:03;13.20;99.90
12845;DHT22;68700;48.534;9.196;2023-05-10T01:15:27;13.20;99.90
12845;DHT22;68700;48.534;9.196;2023-05-10T01:18:49;13.10;99.90
12845;DHT22;68700;48.534;9.196;2023-05-10T01:22:28;13.10;99.90
12845;DHT22;68700;48.534;9.196;2023-05-10T01:26:23;13.20;99.90
12845;DHT22;68700;48.534;9.196;2023-05-10T01:30:35;13.20;99.90
12845;DHT22;68700;48.534;9.196;2023-05-10T01:34:07;13.20;99.90
12845;DHT22;68700;48.534;9.196;2023-05-10T01:37:41;13.10;99.90
12845;DHT22;68700;48.534;9.196;2023-05-10T01:41:09;13.20;99.90
12845;DHT22;68700;48.534;9.196;2023-05-10T01:44:37;13.10;99.90
12845;DHT22;68700;48.534;9.196;2023-05-10T01:48:05;13.10;99.90
12845;DHT22;68700;48.534;9.196;2023-05-10T01:51:34;13.10;99.90
12845;DHT22;68700;48.534;9.196;2023-05-10T01:55:02;13.10;99.90
12845;DHT22;68700;48.534;9.196;2023-05-10T01:58:28;13.20;99.90
12845;DHT22;68700;48.534;9.196;2023-05-10T02:01:51;13.20;99.90
12845;DHT22;68700;48.534;9.196;2023-05-10T02:05:16;13.10;99.90
12845;DHT22;68700;48.534;9.196;2023-05-10T02:08:40;13.10;99.90
12845;DHT22;68700;48.534;9.196;2023-05-10T02:12:04;13.00;99.90
12845;DHT22;68700;48.534;9.196;2023-05-10T02:15:27;13.00;99.90
12845;DHT22;68700;48.534;9.196;2023-05-10T02:18:50;13.00;99.90
12845;DHT22;68700;48.534;9.196;2023-05-10T02:22:13;12.90;99.90
12845;DHT22;68700;48.534;9.196;2023-05-10T02:25:38;12.90;99.90
12845;DHT22;68700;48.534;9.196;2023-05-10T02:29:01;12.80;99.90
12845;DHT22;68700;48.534;9.196;2023-05-10T02:32:26;12.80;99.90
12845;DHT22;68700;48.534;9.196;2023-05-10T02:35:49;12.70;99.90
12845;DHT22;68700;48.534;9.196;2023-05-10T02:39:13;12.70;99.90
12845;DHT22;68700;48.534;9.196;2023-05-10T02:42:38;12.70;99.90
12845;DHT22;68700;48.534;9.196;2023-05-10T02:46:02;12.60;99.90
12845;DHT22;68700;48.534;9.196;2023-05-10T02:49:24;12.60;99.90
12845;DHT22;68700;48.534;9.196;2023-05-10T02:52:48;12.60;99.90
12845;DHT22;68700;48.534;9.196;2023-05-10T02:56:17;12.60;99.90
12845;DHT22;68700;48.534;9.196;2023-05-10T02:59:42;12.60;99.90
12845;DHT22;68700;48.534;9.196;2023-05-10T03:03:05;12.50;99.90
12845;DHT22;68700;48.534;9.196;2023-05-10T03:06:27;12.50;99.90
12845;DHT22;68700;48.534;9.196;2023-05-10T03:09:49;12.50;99.90
12845;DHT22;68700;48.534;9.196;2023-05-10T03:13:23;12.40;99.90
12845;DHT22;68700;48.534;9.196;2023-05-10T03:16:56;12.50;99.90
12845;DHT22;68700;48.534;9.196;2023-05-10T03:20:24;12.50;99.90
12845;DHT22;68700;48.534;9.196;2023-05-10T03:23:51;12.50;99.90
12845;DHT22;68700;48.534;9.196;2023-05-10T03:27:17;12.40;99.90
12845;DHT22;68700;48.534;9.196;2023-05-10T03:30:39;12.30;99.90
12845;DHT22;68700;48.534;9.196;2023-05-10T03:34:03;12.40;99.90
12845;DHT22;68700;48.534;9.196;2023-05-10T03:37:25;12.30;99.90
12845;DHT22;68700;48.534;9.196;2023-05-10T03:40:47;12.30;99.90
12845;DHT22;68700;48.534;9.196;2023-05-10T03:44:09;12.30;99.90
12845;DHT22;68700;48.534;9.196;2023-05-10T03:47:31;12.30;99.90
12845;DHT22;68700;48.534;9.196;2023-05-10T03:50:54;12.30;99.90
12845;DHT22;68700;48.534;9.196;2023-05-10T03:54:16;12.20;99.90
12845;DHT22;68700;48.534;9.196;2023-05-10T03:57:38;12.20;99.90
12845;DHT22;68700;48.534;9.196;2023-05-10T04:01:00;12.30;99.90
12845;DHT22;68700;48.534;9.196;2023-05-10T04:04:22;12.20;99.90
12845;DHT22;68700;48.534;9.196;2023-05-10T04:07:45;12.30;99.90
12845;DHT22;68700;48.534;9.196;2023-05-10T04:11:10;12.40;99.90
12845;DHT22;68700;48.534;9.196;2023-05-10T04:14:33;12.40;99.90
12845;DHT22;68700;48.534;9.196;2023-05-10T04:17:55;12.40;99.90
12845;DHT22;68700;48.534;9.196;2023-05-10T04:21:16;12.50;99.90
12845;DHT22;68700;48.534;9.196;2023-05-10T04:24:40;12.50;99.90
12845;DHT22;68700;48.534;9.196;2023-05-10T04:28:01;12.50;99.90
12845;DHT22;68700;48.534;9.196;2023-05-10T04:31:23;12.60;99.90
12845;DHT22;68700;48.534;9.196;2023-05-10T04:34:47;12.50;99.90
12845;DHT22;68700;48.534;9.196;2023-05-10T04:38:09;12.70;99.90
12845;DHT22;68700;48.534;9.196;2023-05-10T04:41:32;12.60;99.90
12845;DHT22;68700;48.534;9.196;2023-05-10T04:44:54;12.60;99.90
12845;DHT22;68700;48.534;9.196;2023-05-10T04:48:16;12.60;99.90
12845;DHT22;68700;48.534;9.196;2023-05-10T04:51:38;12.60;99.90
12845;DHT22;68700;48.534;9.196;2023-05-10T04:55:00;12.60;99.90
12845;DHT22;68700;48.534;9.196;2023-05-10T04:58:23;12.70;99.90
12845;DHT22;68700;48.534;9.196;2023-05-10T05:01:45;12.60;99.90
12845;DHT22;68700;48.534;9.196;2023-05-10T05:05:07;12.60;99.90
12845;DHT22;68700;48.534;9.196;2023-05-10T05:08:29;12.70;99.90
12845;DHT22;68700;48.534;9.196;2023-05-10T05:11:51;12.70;99.90
12845;DHT22;68700;48.534;9.196;2023-05-10T05:15:15;12.70;99.90
12845;DHT22;68700;48.534;9.196;2023-05-10T05:18:37;12.70;99.90
12845;DHT22;68700;48.534;9.196;2023-05-10T05:21:59;12.70;99.90
12845;DHT22;68700;48.534;9.196;2023-05-10T05:25:21;12.70;99.90
12845;DHT22;68700;48.534;9.196;2023-05-10T05:28:43;12.80;99.90
12845;DHT22;68700;48.534;9.196;2023-05-10T05:32:06;13.00;99.90
12845;DHT22;68700;48.534;9.196;2023-05-10T05:35:28;13.00;99.90
12845;DHT22;68700;48.534;9.196;2023-05-10T05:38:50;12.90;99.90
12845;DHT22;68700;48.534;9.196;2023-05-10T05:42:13;13.10;99.90
12845;DHT22;68700;48.534;9.196;2023-05-10T05:45:35;13.10;99.90
12845;DHT22;68700;48.534;9.196;2023-05-10T05:48:58;13.20;99.90
12845;DHT22;68700;48.534;9.196;2023-05-10T05:52:20;13.00;99.90
12845;DHT22;68700;48.534;9.196;2023-05-10T05:55:51;13.10;99.90
12845;DHT22;68700;48.534;9.196;2023-05-10T05:59:13;12.80;99.90
12845;DHT22;68700;48.534;9.196;2023-05-10T06:02:34;12.80;99.90
12845;DHT22;68700;48.534;9.196;2023-05-10T06:05:58;12.80;99.90
12845;DHT22;68700;48.534;9.196;2023-05-10T06:09:20;12.80;99.90
12845;DHT22;68700;48.534;9.196;2023-05-10T06:12:44;12.80;99.90
12845;DHT22;68700;48.534;9.196;2023-05-10T06:16:06;12.80;99.90
12845;DHT22;68700;48.534;9.196;2023-05-10T06:19:28;12.80;99.90
12845;DHT22;68700;48.534;9.196;2023-05-10T06:22:51;13.00;99.90
12845;DHT22;68700;48.534;9.196;2023-05-10T06:26:13;13.00;99.90
12845;DHT22;68700;48.534;9.196;2023-05-10T06:29:35;13.00;99.90
12845;DHT22;68700;48.534;9.196;2023-05-10T06:32:57;13.00;99.90
12845;DHT22;68700;48.534;9.196;2023-05-10T06:36:19;13.20;99.90
12845;DHT22;68700;48.534;9.196;2023-05-10T06:39:42;13.30;99.90
12845;DHT22;68700;48.534;9.196;2023-05-10T06:43:04;13.50;99.90
12845;DHT22;68700;48.534;9.196;2023-05-10T06:46:26;13.60;99.90
12845;DHT22;68700;48.534;9.196;2023-05-10T06:49:48;13.70;99.90
12845;DHT22;68700;48.534;9.196;2023-05-10T06:53:10;14.00;99.90
12845;DHT22;68700;48.534;9.196;2023-05-10T06:56:33;14.30;99.90
12845;DHT22;68700;48.534;9.196;2023-05-10T06:59:55;14.60;59.30
12845;DHT22;68700;48.534;9.196;2023-05-10T07:03:17;14.60;63.40
12845;DHT22;68700;48.534;9.196;2023-05-10T07:06:39;14.60;1.00
12845;DHT22;68700;48.534;9.196;2023-05-10T07:10:01;14.50;1.00
12845;DHT22;68700;48.534;9.196;2023-05-10T07:13:24;14.40;9.40
12845;DHT22;68700;48.534;9.196;2023-05-10T07:16:46;14.60;1.00
12845;DHT22;68700;48.534;9.196;2023-05-10T07:20:09;14.40;1.00
12845;DHT22;68700;48.534;9.196;2023-05-10T07:23:31;14.30;13.70
12845;DHT22;68700;48.534;9.196;2023-05-10T07:26:52;14.30;23.70
12845;DHT22;68700;48.534;9.196;2023-05-10T07:30:16;14.30;15.90
12845;DHT22;68700;48.534;9.196;2023-05-10T07:33:37;13.90;5.70
12845;DHT22;68700;48.534;9.196;2023-05-10T07:36:59;14.00;11.80
12845;DHT22;68700;48.534;9.196;2023-05-10T07:40:22;13.80;19.90
12845;DHT22;68700;48.534;9.196;2023-05-10T07:43:43;14.00;42.60
12845;DHT22;68700;48.534;9.196;2023-05-10T07:47:07;14.10;37.50
12845;DHT22;68700;48.534;9.196;2023-05-10T07:50:29;14.30;23.50
12845;DHT22;68700;48.534;9.196;2023-05-10T07:53:51;14.10;14.30
12845;DHT22;68700;48.534;9.196;2023-05-10T07:57:12;14.10;75.60
12845;DHT22;68700;48.534;9.196;2023-05-10T08:00:38;14.30;99.90
12845;DHT22;68700;48.534;9.196;2023-05-10T08:04:03;14.30;32.70
12845;DHT22;68700;48.534;9.196;2023-05-10T08:07:24;14.30;68.90
12845;DHT22;68700;48.534;9.196;2023-05-10T08:10:46;14.50;1.00
12845;DHT22;68700;48.534;9.196;2023-05-10T08:14:08;14.70;5.80
12845;DHT22;68700;48.534;9.196;2023-05-10T08:17:30;14.50;39.70
12845;DHT22;68700;48.534;9.196;2023-05-10T08:20:54;14.60;1.00
12845;DHT22;68700;48.534;9.196;2023-05-10T08:24:16;14.80;1.00
12845;DHT22;68700;48.534;9.196;2023-05-10T08:27:38;15.10;1.00
12845;DHT22;68700;48.534;9.196;2023-05-10T08:31:00;15.30;1.00
12845;DHT22;68700;48.534;9.196;2023-05-10T08:34:22;15.50;1.00
12845;DHT22;68700;48.534;9.196;2023-05-10T08:37:46;15.40;1.00
12845;DHT22;68700;48.534;9.196;2023-05-10T08:41:07;15.40;1.00
12845;DHT22;68700;48.534;9.196;2023-05-10T08:44:31;15.80;1.00
12845;DHT22;68700;48.534;9.196;2023-05-10T08:47:54;15.80;1.00
12845;DHT22;68700;48.534;9.196;2023-05-10T08:51:19;16.30;1.00
12845;DHT22;68700;48.534;9.196;2023-05-10T08:54:43;16.20;1.00
12845;DHT22;68700;48.534;9.196;2023-05-10T08:58:06;16.20;1.00
12845;DHT22;68700;48.534;9.196;2023-05-10T09:01:28;16.40;1.00
12845;DHT22;68700;48.534;9.196;2023-05-10T09:04:52;16.50;1.00
12845;DHT22;68700;48.534;9.196;2023-05-10T09:08:14;16.70;1.00
12845;DHT22;68700;48.534;9.196;2023-05-10T09:11:38;16.50;1.00
12845;DHT22;68700;48.534;9.196;2023-05-10T09:15:02;16.70;1.00
12845;DHT22;68700;48.534;9.196;2023-05-10T09:18:25;16.30;1.00
12845;DHT22;68700;48.534;9.196;2023-05-10T09:21:47;16.50;1.00
12845;DHT22;68700;48.534;9.196;2023-05-10T09:25:10;16.40;1.00
12845;DHT22;68700;48.534;9.196;2023-05-10T09:28:34;16.20;1.00
12845;DHT22;68700;48.534;9.196;2023-05-10T09:32:11;15.70;1.00
12845;DHT22;68700;48.534;9.196;2023-05-10T09:35:33;15.90;1.00
12845;DHT22;68700;48.534;9.196;2023-05-10T09:38:55;16.20;1.00
12845;DHT22;68700;48.534;9.196;2023-05-10T09:42:18;16.40;1.00
12845;DHT22;68700;48.534;9.196;2023-05-10T09:45:41;16.70;1.00
12845;DHT22;68700;48.534;9.196;2023-05-10T09:49:03;16.80;1.00
12845;DHT22;68700;48.534;9.196;2023-05-10T09:52:27;17.00;1.00
12845;DHT22;68700;48.534;9.196;2023-05-10T09:55:48;18.10;1.00
12845;DHT22;68700;48.534;9.196;2023-05-10T09:59:12;18.90;1.00
12845;DHT22;68700;48.534;9.196;2023-05-10T10:02:35;19.60;1.00
12845;DHT22;68700;48.534;9.196;2023-05-10T10:05:57;20.40;1.00
12845;DHT22;68700;48.534;9.196;2023-05-10T10:09:19;19.70;1.00
12845;DHT22;68700;48.534;9.196;2023-05-10T10:13:08;19.80;1.00
12845;DHT22;68700;48.534;9.196;2023-05-10T10:16:31;18.90;1.00
12845;DHT22;68700;48.534;9.196;2023-05-10T10:19:55;17.40;1.00
12845;DHT22;68700;48.534;9.196;2023-05-10T10:23:18;16.40;1.00
12845;DHT22;68700;48.534;9.196;2023-05-10T10:26:42;15.40;1.00
12845;DHT22;68700;48.534;9.196;2023-05-10T10:30:13;15.10;1.00
12845;DHT22;68700;48.534;9.196;2023-05-10T10:33:46;15.50;1.00
12845;DHT22;68700;48.534;9.196;2023-05-10T10:37:13;15.30;1.00
12845;DHT22;68700;48.534;9.196;2023-05-10T10:40:35;14.80;1.00
12845;DHT22;68700;48.534;9.196;2023-05-10T10:44:22;14.70;1.00
12845;DHT22;68700;48.534;9.196;2023-05-10T10:47:44;14.80;1.00
12845;DHT22;68700;48.534;9.196;2023-05-10T10:51:06;15.10;1.00
12845;DHT22;68700;48.534;9.196;2023-05-10T10:54:30;15.30;1.00
12845;DHT22;68700;48.534;9.196;2023-05-10T10:57:55;15.50;1.00
12845;DHT22;68700;48.534;9.196;2023-05-10T11:01:21;15.70;1.00
12845;DHT22;68700;48.534;9.196;2023-05-10T11:04:43;16.10;1.00
12845;DHT22;68700;48.534;9.196;2023-05-10T11:08:18;15.90;1.00
12845;DHT22;68700;48.534;9.196;2023-05-10T11:11:51;16.20;1.00
12845;DHT22;68700;48.534;9.196;2023-05-10T11:15:15;16.30;1.00
12845;DHT22;68700;48.534;9.196;2023-05-10T11:18:37;16.70;1.00
12845;DHT22;68700;48.534;9.196;2023-05-10T11:22:12;16.20;1.00
12845;DHT22;68700;48.534;9.196;2023-05-10T11:25:35;15.50;1.00
12845;DHT22;68700;48.534;9.196;2023-05-10T11:29:03;14.90;1.00
12845;DHT22;68700;48.534;9.196;2023-05-10T11:32:25;14.80;1.00
12845;DHT22;68700;48.534;9.196;2023-05-10T11:35:47;14.10;1.00
12845;DHT22;68700;48.534;9.196;2023-05-10T11:39:09;14.10;1.00
12845;DHT22;68700;48.534;9.196;2023-05-10T11:42:32;13.90;1.00
12845;DHT22;68700;48.534;9.196;2023-05-10T11:45:55;13.90;1.00
12845;DHT22;68700;48.534;9.196;2023-05-10T11:49:17;14.00;1.00
12845;DHT22;68700;48.534;9.196;2023-05-10T11:52:39;14.30;1.00
12845;DHT22;68700;48.534;9.196;2023-05-10T11:56:05;14.70;1.00
12845;DHT22;68700;48.534;9.196;2023-05-10T11:59:27;15.10;1.00
12845;DHT22;68700;48.534;9.196;2023-05-10T12:02:51;14.90;1.00
12845;DHT22;68700;48.534;9.196;2023-05-10T12:06:13;14.50;1.00
12845;DHT22;68700;48.534;9.196;2023-05-10T12:09:35;14.90;1.00
12845;DHT22;68700;48.534;9.196;2023-05-10T12:12:57;14.70;1.00
12845;DHT22;68700;48.534;9.196;2023-05-10T12:16:20;15.00;1.00
12845;DHT22;68700;48.534;9.196;2023-05-10T12:19:44;14.80;1.00
12845;DHT22;68700;48.534;9.196;2023-05-10T12:23:07;15.10;1.00
12845;DHT22;68700;48.534;9.196;2023-05-10T12:26:30;14.90;1.00
12845;DHT22;68700;48.534;9.196;2023-05-10T12:29:52;15.30;1.00
12845;DHT22;68700;48.534;9.196;2023-05-10T12:33:15;15.00;1.00
12845;DHT22;68700;48.534;9.196;2023-05-10T12:36:40;15.10;1.00
12845;DHT22;68700;48.534;9.196;2023-05-10T12:40:03;15.00;1.00
12845;DHT22;68700;48.534;9.196;2023-05-10T12:43:25;15.50;1.00
12845;DHT22;68700;48.534;9.196;2023-05-10T12:46:47;16.10;1.00
12845;DHT22;68700;48.534;9.196;2023-05-10T12:50:10;16.40;1.00
12845;DHT22;68700;48.534;9.196;2023-05-10T12:53:33;16.60;1.00
12845;DHT22;68700;48.534;9.196;2023-05-10T12:56:55;16.70;1.00
12845;DHT22;68700;48.534;9.196;2023-05-10T13:00:17;17.20;1.00
12845;DHT22;68700;48.534;9.196;2023-05-10T13:03:39;16.90;1.00
12845;DHT22;68700;48.534;9.196;2023-05-10T13:07:02;16.90;1.00
12845;DHT22;68700;48.534;9.196;2023-05-10T13:10:25;16.90;1.00
12845;DHT22;68700;48.534;9.196;2023-05-10T13:13:47;17.10;1.00
12845;DHT22;68700;48.534;9.196;2023-05-10T13:17:09;17.40;1.00
12845;DHT22;68700;48.534;9.196;2023-05-10T13:20:31;17.20;1.00
12845;DHT22;68700;48.534;9.196;2023-05-10T13:23:53;16.70;1.00
12845;DHT22;68700;48.534;9.196;2023-05-10T13:27:16;15.90;1.00
12845;DHT22;68700;48.534;9.196;2023-05-10T13:30:38;16.50;1.00
12845;DHT22;68700;48.534;9.196;2023-05-10T13:34:00;16.80;1.00
12845;DHT22;68700;48.534;9.196;2023-05-10T13:37:22;16.30;1.00
12845;DHT22;68700;48.534;9.196;2023-05-10T13:40:44;16.40;1.00
12845;DHT22;68700;48.534;9.196;2023-05-10T13:44:08;16.50;1.00
12845;DHT22;68700;48.534;9.196;2023-05-10T13:47:30;16.70;1.00
12845;DHT22;68700;48.534;9.196;2023-05-10T13:50:52;16.90;1.00
12845;DHT22;68700;48.534;9.196;2023-05-10T13:54:14;16.80;1.00
12845;DHT22;68700;48.534;9.196;2023-05-10T13:57:37;16.40;1.00
12845;DHT22;68700;48.534;9.196;2023-05-10T14:01:01;16.60;1.00
12845;DHT22;68700;48.534;9.196;2023-05-10T14:04:23;16.70;1.00
12845;DHT22;68700;48.534;9.196;2023-05-10T14:07:48;16.60;1.00
12845;DHT22;68700;48.534;9.196;2023-05-10T14:11:09;16.90;1.00
12845;DHT22;68700;48.534;9.196;2023-05-10T14:14:31;16.80;1.00
12845;DHT22;68700;48.534;9.196;2023-05-10T14:17:55;16.70;1.00
12845;DHT22;68700;48.534;9.196;2023-05-10T14:21:17;17.10;1.00
12845;DHT22;68700;48.534;9.196;2023-05-10T14:24:39;16.90;1.00
12845;DHT22;68700;48.534;9.196;2023-05-10T14:28:00;16.80;1.00
12845;DHT22;68700;48.534;9.196;2023-05-10T14:31:22;16.90;1.00
12845;DHT22;68700;48.534;9.196;2023-05-10T14:34:47;17.00;1.00
12845;DHT22;68700;48.534;9.196;2023-05-10T14:38:09;17.40;1.00
12845;DHT22;68700;48.534;9.196;2023-05-10T14:41:31;17.00;1.00
12845;DHT22;68700;48.534;9.196;2023-05-10T14:44:53;16.70;1.00
12845;DHT22;68700;48.534;9.196;2023-05-10T14:48:15;16.90;1.00
12845;DHT22;68700;48.534;9.196;2023-05-10T14:51:39;17.30;1.00
12845;DHT22;68700;48.534;9.196;2023-05-10T14:55:01;17.70;1.00
12845;DHT22;68700;48.534;9.196;2023-05-10T14:58:25;18.20;1.00
12845;DHT22;68700;48.534;9.196;2023-05-10T15:01:47;18.10;1.00
12845;DHT22;68700;48.534;9.196;2023-05-10T15:05:09;18.20;1.00
12845;DHT22;68700;48.534;9.196;2023-05-10T15:08:32;17.40;1.00
12845;DHT22;68700;48.534;9.196;2023-05-10T15:11:54;17.00;1.00
12845;DHT22;68700;48.534;9.196;2023-05-10T15:15:16;17.30;1.00
12845;DHT22;68700;48.534;9.196;2023-05-10T15:18:38;17.80;1.00
12845;DHT22;68700;48.534;9.196;2023-05-10T15:22:00;18.50;1.00
12845;DHT22;68700;48.534;9.196;2023-05-10T15:25:23;18.70;1.00
12845;DHT22;68700;48.534;9.196;2023-05-10T15:28:45;18.60;1.00
12845;DHT22;68700;48.534;9.196;2023-05-10T15:32:07;18.90;1.00
12845;DHT22;68700;48.534;9.196;2023-05-10T15:35:29;18.70;1.00
12845;DHT22;68700;48.534;9.196;2023-05-10T15:38:51;19.00;1.00
12845;DHT22;68700;48.534;9.196;2023-05-10T15:42:14;18.60;1.00
12845;DHT22;68700;48.534;9.196;2023-05-10T15:45:36;18.60;1.00
12845;DHT22;68700;48.534;9.196;2023-05-10T15:48:58;17.70;1.00
12845;DHT22;68700;48.534;9.196;2023-05-10T15:52:20;18.10;1.00
12845;DHT22;68700;48.534;9.196;2023-05-10T15:55:43;18.10;1.00
12845;DHT22;68700;48.534;9.196;2023-05-10T15:59:06;17.70;1.00
12845;DHT22;68700;48.534;9.196;2023-05-10T16:02:30;17.40;1.00
12845;DHT22;68700;48.534;9.196;2023-05-10T16:05:52;17.30;1.00
12845;DHT22;68700;48.534;9.196;2023-05-10T16:09:14;16.60;1.00
12845;DHT22;68700;48.534;9.196;2023-05-10T16:12:36;16.50;1.00
12845;DHT22;68700;48.534;9.196;2023-05-10T16:16:00;16.80;1.00
12845;DHT22;68700;48.534;9.196;2023-05-10T16:19:21;16.60;1.00
12845;DHT22;68700;48.534;9.196;2023-05-10T16:22:43;16.70;1.00
12845;DHT22;68700;48.534;9.196;2023-05-10T16:26:05;16.50;1.00
12845;DHT22;68700;48.534;9.196;2023-05-10T16:29:28;16.10;1.00
12845;DHT22;68700;48.534;9.196;2023-05-10T16:32:52;15.90;1.00
12845;DHT22;68700;48.534;9.196;2023-05-10T16:36:14;15.80;1.00
12845;DHT22;68700;48.534;9.196;2023-05-10T16:39:36;15.20;1.00
12845;DHT22;68700;48.534;9.196;2023-05-10T16:42:58;15.10;1.00
12845;DHT22;68700;48.534;9.196;2023-05-10T16:46:20;15.00;1.00
12845;DHT22;68700;48.534;9.196;2023-05-10T16:49:43;15.00;1.00
12845;DHT22;68700;48.534;9.196;2023-05-10T16:53:05;15.10;1.00
12845;DHT22;68700;48.534;9.196;2023-05-10T16:56:27;15.10;1.00
12845;DHT22;68700;48.534;9.196;2023-05-10T16:59:49;15.00;1.00
12845;DHT22;68700;48.534;9.196;2023-05-10T17:03:12;15.00;1.00
12845;DHT22;68700;48.534;9.196;2023-05-10T17:06:36;15.20;1.00
12845;DHT22;68700;48.534;9.196;2023-05-10T17:09:58;15.30;1.00
12845;DHT22;68700;48.534;9.196;2023-05-10T17:13:19;15.10;1.00
12845;DHT22;68700;48.534;9.196;2023-05-10T17:16:41;15.10;1.00
12845;DHT22;68700;48.534;9.196;2023-05-10T17:20:04;15.10;1.00
12845;DHT22;68700;48.534;9.196;2023-05-10T17:23:28;15.00;1.00
12845;DHT22;68700;48.534;9.196;2023-05-10T17:26:50;14.70;1.00
12845;DHT22;68700;48.534;9.196;2023-05-10T17:30:12;14.70;1.00
12845;DHT22;68700;48.534;9.196;2023-05-10T17:33:36;14.60;1.00
12845;DHT22;68700;48.534;9.196;2023-05-10T17:36:58;14.60;1.00
12845;DHT22;68700;48.534;9.196;2023-05-10T17:40:21;14.50;1.00
12845;DHT22;68700;48.534;9.196;2023-05-10T17:43:43;14.50;1.00
12845;DHT22;68700;48.534;9.196;2023-05-10T17:47:05;14.30;1.00
12845;DHT22;68700;48.534;9.196;2023-05-10T17:50:27;14.20;1.00
12845;DHT22;68700;48.534;9.196;2023-05-10T17:53:49;14.00;1.00
12845;DHT22;68700;48.534;9.196;2023-05-10T17:57:13;14.00;1.00
12845;DHT22;68700;48.534;9.196;2023-05-10T18:00:35;14.00;1.00
12845;DHT22;68700;48.534;9.196;2023-05-10T18:03:57;14.00;1.00
12845;DHT22;68700;48.534;9.196;2023-05-10T18:07:19;14.00;1.00
12845;DHT22;68700;48.534;9.196;2023-05-10T18:10:43;13.90;1.00
12845;DHT22;68700;48.534;9.196;2023-05-10T18:14:06;14.00;1.00
12845;DHT22;68700;48.534;9.196;2023-05-10T18:17:28;13.80;1.00
12845;DHT22;68700;48.534;9.196;2023-05-10T18:20:50;13.80;1.00
12845;DHT22;68700;48.534;9.196;2023-05-10T18:24:16;13.90;1.00
12845;DHT22;68700;48.534;9.196;2023-05-10T18:27:38;13.90;1.00
12845;DHT22;68700;48.534;9.196;2023-05-10T18:31:01;13.90;1.00
12845;DHT22;68700;48.534;9.196;2023-05-10T18:34:23;13.80;1.00
12845;DHT22;68700;48.534;9.196;2023-05-10T18:37:45;13.80;1.00
12845;DHT22;68700;48.534;9.196;2023-05-10T18:41:08;13.70;1.00
12845;DHT22;68700;48.534;9.196;2023-05-10T18:44:31;13.70;1.00
12845;DHT22;68700;48.534;9.196;2023-05-10T18:47:55;13.60;1.00
12845;DHT22;68700;48.534;9.196;2023-05-10T18:51:17;13.60;1.00
12845;DHT22;68700;48.534;9.196;2023-05-10T18:54:39;13.60;1.00
12845;DHT22;68700;48.534;9.196;2023-05-10T18:58:01;13.50;1.00
12845;DHT22;68700;48.534;9.196;2023-05-10T19:01:23;13.50;1.00
12845;DHT22;68700;48.534;9.196;2023-05-10T19:04:46;13.40;1.00
12845;DHT22;68700;48.534;9.196;2023-05-10T19:08:08;13.30;1.00
12845;DHT22;68700;48.534;9.196;2023-05-10T19:11:30;13.30;1.00
12845;DHT22;68700;48.534;9.196;2023-05-10T19:14:53;13.20;1.00
12845;DHT22;68700;48.534;9.196;2023-05-10T19:18:15;13.10;1.00
12845;DHT22;68700;48.534;9.196;2023-05-10T19:21:39;13.00;1.00
12845;DHT22;68700;48.534;9.196;2023-05-10T19:25:00;12.90;1.00
12845;DHT22;68700;48.534;9.196;2023-05-10T19:28:22;12.90;1.00
12845;DHT22;68700;48.534;9.196;2023-05-10T19:31:44;12.80;1.00
12845;DHT22;68700;48.534;9.196;2023-05-10T19:35:07;12.80;1.00
12845;DHT22;68700;48.534;9.196;2023-05-10T19:38:31;12.70;1.00
12845;DHT22;68700;48.534;9.196;2023-05-10T19:41:52;12.70;1.00
12845;DHT22;68700;48.534;9.196;2023-05-10T19:45:14;12.60;1.00
12845;DHT22;68700;48.534;9.196;2023-05-10T19:48:36;12.60;1.00
12845;DHT22;68700;48.534;9.196;2023-05-10T19:51:58;12.60;1.00
12845;DHT22;68700;48.534;9.196;2023-05-10T19:55:29;12.60;1.00
12845;DHT22;68700;48.534;9.196;2023-05-10T19:58:51;12.50;1.00
12845;DHT22;68700;48.534;9.196;2023-05-10T20:02:13;12.40;1.00
12845;DHT22;68700;48.534;9.196;2023-05-10T20:05:35;12.30;1.00
12845;DHT22;68700;48.534;9.196;2023-05-10T20:08:57;12.20;1.00
12845;DHT22;68700;48.534;9.196;2023-05-10T20:12:20;12.20;1.00
12845;DHT22;68700;48.534;9.196;2023-05-10T20:15:42;12.20;1.00
12845;DHT22;68700;48.534;9.196;2023-05-10T20:19:04;12.20;1.00
12845;DHT22;68700;48.534;9.196;2023-05-10T20:22:26;12.10;1.00
12845;DHT22;68700;48.534;9.196;2023-05-10T20:25:48;12.30;1.00
12845;DHT22;68700;48.534;9.196;2023-05-10T20:29:12;12.10;1.00
12845;DHT22;68700;48.534;9.196;2023-05-10T20:32:35;12.00;1.00
12845;DHT22;68700;48.534;9.196;2023-05-10T20:35:57;12.00;1.00
12845;DHT22;68700;48.534;9.196;2023-05-10T20:39:19;11.90;1.00
12845;DHT22;68700;48.534;9.196;2023-05-10T20:42:41;11.90;1.00
12845;DHT22;68700;48.534;9.196;2023-05-10T20:46:07;11.90;1.00
12845;DHT22;68700;48.534;9.196;2023-05-10T20:49:29;11.90;1.00
12845;DHT22;68700;48.534;9.196;2023-05-10T20:52:51;11.90;1.00
12845;DHT22;68700;48.534;9.196;2023-05-10T20:56:13;11.90;1.00
12845;DHT22;68700;48.534;9.196;2023-05-10T20:59:34;11.90;1.00
12845;DHT22;68700;48.534;9.196;2023-05-10T21:02:58;11.90;1.00
12845;DHT22;68700;48.534;9.196;2023-05-10T21:06:20;11.90;1.00
12845;DHT22;68700;48.534;9.196;2023-05-10T21:09:42;11.90;1.00
12845;DHT22;68700;48.534;9.196;2023-05-10T21:13:04;11.90;1.00
12845;DHT22;68700;48.534;9.196;2023-05-10T21:16:26;11.90;1.00
12845;DHT22;68700;48.534;9.196;2023-05-10T21:19:49;11.90;1.00
12845;DHT22;68700;48.534;9.196;2023-05-10T21:23:11;11.90;1.00
12845;DHT22;68700;48.534;9.196;2023-05-10T21:26:33;11.90;1.00
12845;DHT22;68700;48.534;9.196;2023-05-10T21:29:55;11.90;1.00
12845;DHT22;68700;48.534;9.196;2023-05-10T21:33:17;11.90;1.00
12845;DHT22;68700;48.534;9.196;2023-05-10T21:36:40;11.90;1.00